createdAt,value
2017-07-18T00:00:50.661Z,23.33
2017-07-18T00:03:17.068Z,23.32
2017-07-18T00:05:43.442Z,23.32
2017-07-18T00:08:09.805Z,23.32
2017-07-18T00:10:36.956Z,23.31
2017-07-18T00:13:03.340Z,23.32
2017-07-18T00:15:30.471Z,23.31
2017-07-18T00:17:56.840Z,23.31
2017-07-18T00:20:23.960Z,23.30
2017-07-18T00:22:50.322Z,23.29
2017-07-18T00:25:16.712Z,23.29
2017-07-18T00:27:43.853Z,23.29
2017-07-18T00:30:10.225Z,23.29
2017-07-18T00:32:36.581Z,23.29
2017-07-18T00:35:03.720Z,23.28
2017-07-18T00:37:30.267Z,23.29
2017-07-18T00:39:56.639Z,23.28
2017-07-18T00:42:23.022Z,23.26
2017-07-18T00:44:49.388Z,23.26
2017-07-18T00:47:15.752Z,23.27
2017-07-18T00:49:42.143Z,23.26
2017-07-18T00:52:08.500Z,23.25
2017-07-18T00:54:34.856Z,23.24
2017-07-18T00:57:01.223Z,23.24
2017-07-18T00:59:27.623Z,23.23
2017-07-18T01:01:54.002Z,23.23
2017-07-18T01:04:21.143Z,23.23
2017-07-18T01:06:47.524Z,23.23
2017-07-18T01:09:13.903Z,23.21
2017-07-18T01:11:40.273Z,23.21
2017-07-18T01:14:06.640Z,23.21
2017-07-18T01:16:33.029Z,23.20
2017-07-18T01:18:59.395Z,23.21
2017-07-18T01:21:25.759Z,23.20
2017-07-18T01:23:52.144Z,23.19
2017-07-18T01:26:18.513Z,23.19
2017-07-18T01:28:45.664Z,23.19
2017-07-18T01:31:12.036Z,23.18
2017-07-18T01:33:38.435Z,23.19
2017-07-18T01:36:04.804Z,23.18
2017-07-18T01:38:31.313Z,23.18
2017-07-18T01:40:57.699Z,23.18
2017-07-18T01:43:24.088Z,23.18
2017-07-18T01:45:50.495Z,23.18
2017-07-18T01:48:16.856Z,23.15
2017-07-18T01:50:43.229Z,23.14
2017-07-18T01:53:10.319Z,23.15
2017-07-18T01:55:36.701Z,23.15
2017-07-18T01:58:03.084Z,23.15
2017-07-18T02:00:30.228Z,23.14
2017-07-18T02:02:56.607Z,23.13
2017-07-18T02:05:22.962Z,23.13
2017-07-18T02:07:50.094Z,23.12
2017-07-18T02:10:16.462Z,23.13
2017-07-18T02:12:42.838Z,23.11
2017-07-18T02:15:09.979Z,23.09
2017-07-18T02:17:36.347Z,23.10
2017-07-18T02:20:03.497Z,23.09
2017-07-18T02:22:29.849Z,23.11
2017-07-18T02:24:56.183Z,23.11
2017-07-18T02:27:22.585Z,23.08
2017-07-18T02:29:48.970Z,23.09
2017-07-18T02:32:15.331Z,23.08
2017-07-18T02:34:41.709Z,23.10
2017-07-18T02:37:08.075Z,23.10
2017-07-18T02:39:34.468Z,23.07
2017-07-18T02:42:00.869Z,23.07
2017-07-18T02:44:27.983Z,23.05
2017-07-18T02:46:54.365Z,23.06
2017-07-18T02:49:20.916Z,23.05
2017-07-18T02:51:48.070Z,23.07
2017-07-18T02:54:14.437Z,23.06
2017-07-18T02:56:41.615Z,23.06
2017-07-18T02:59:08.758Z,23.05
2017-07-18T03:01:35.122Z,23.06
2017-07-18T03:04:02.269Z,23.05
2017-07-18T03:06:28.632Z,23.04
2017-07-18T03:08:55.004Z,23.05
2017-07-18T03:11:22.142Z,23.04
2017-07-18T03:13:48.711Z,23.04
2017-07-18T03:16:15.843Z,23.02
2017-07-18T03:18:42.203Z,23.03
2017-07-18T03:21:08.605Z,23.02
2017-07-18T03:23:34.971Z,23.02
2017-07-18T03:26:01.350Z,23.02
2017-07-18T03:28:27.735Z,23.02
2017-07-18T03:30:54.111Z,23.02
2017-07-18T03:33:20.497Z,23.03
2017-07-18T03:35:46.890Z,23.01
2017-07-18T03:38:14.040Z,23.00
2017-07-18T03:40:40.400Z,23.01
2017-07-18T03:43:07.546Z,23.00
2017-07-18T03:45:33.908Z,23.01
2017-07-18T03:48:01.043Z,23.00
2017-07-18T03:50:27.406Z,22.99
2017-07-18T03:52:53.779Z,22.98
2017-07-18T03:55:20.911Z,22.98
2017-07-18T03:57:47.361Z,22.97
2017-07-18T04:00:13.736Z,22.97
2017-07-18T04:02:40.120Z,22.96
2017-07-18T04:05:06.526Z,22.97
2017-07-18T04:07:32.884Z,22.96
2017-07-18T04:09:59.269Z,22.96
2017-07-18T04:12:25.656Z,22.96
2017-07-18T04:14:52.012Z,22.95
2017-07-18T04:17:18.387Z,22.95
2017-07-18T04:19:44.756Z,22.94
2017-07-18T04:22:11.108Z,22.96
2017-07-18T04:24:37.497Z,22.94
2017-07-18T04:27:03.890Z,22.94
2017-07-18T04:29:31.039Z,22.93
2017-07-18T04:31:57.409Z,22.93
2017-07-18T04:34:24.553Z,22.93
2017-07-18T04:36:51.052Z,22.93
2017-07-18T04:39:17.442Z,22.93
2017-07-18T04:41:43.923Z,22.92
2017-07-18T04:44:10.293Z,22.90
2017-07-18T04:46:36.680Z,22.91
2017-07-18T04:49:03.057Z,22.92
2017-07-18T04:51:30.524Z,22.91
2017-07-18T04:53:57.135Z,22.90
2017-07-18T04:56:23.501Z,22.91
2017-07-18T04:58:49.903Z,22.90
2017-07-18T05:01:16.259Z,22.91
2017-07-18T05:03:42.642Z,22.90
2017-07-18T05:06:09.017Z,22.90
2017-07-18T05:08:35.372Z,22.91
2017-07-18T05:11:01.747Z,22.90
2017-07-18T05:13:29.583Z,22.90
2017-07-18T05:15:55.938Z,22.91
2017-07-18T05:18:22.323Z,22.90
2017-07-18T05:20:48.693Z,22.90
2017-07-18T05:23:15.811Z,22.88
2017-07-18T05:25:42.183Z,22.90
2017-07-18T05:28:08.553Z,22.89
2017-07-18T05:30:35.686Z,22.89
2017-07-18T05:33:02.052Z,22.90
2017-07-18T05:35:28.425Z,22.90
2017-07-18T05:37:55.591Z,22.89
2017-07-18T05:40:22.783Z,22.90
2017-07-18T05:42:49.175Z,22.89
2017-07-18T05:45:15.567Z,22.88
2017-07-18T05:47:41.924Z,22.88
2017-07-18T05:50:08.322Z,22.89
2017-07-18T05:52:34.692Z,22.89
2017-07-18T05:55:01.079Z,22.88
2017-07-18T05:57:27.470Z,22.89
2017-07-18T05:59:53.835Z,22.89
2017-07-18T06:02:20.202Z,22.89
2017-07-18T06:04:46.573Z,22.89
2017-07-18T06:07:13.006Z,22.89
2017-07-18T06:09:40.246Z,22.90
2017-07-18T06:12:06.799Z,22.89
2017-07-18T06:14:33.320Z,22.89
2017-07-18T06:16:59.700Z,22.89
2017-07-18T06:19:26.255Z,22.89
2017-07-18T06:21:52.795Z,22.89
2017-07-18T06:24:19.172Z,22.90
2017-07-18T06:26:45.556Z,22.89
2017-07-18T06:29:12.063Z,22.88
2017-07-18T06:31:38.621Z,22.88
2017-07-18T06:34:05.170Z,22.88
2017-07-18T06:36:31.715Z,22.90
2017-07-18T06:38:58.102Z,22.91
2017-07-18T06:41:24.463Z,22.90
2017-07-18T06:43:50.863Z,22.89
2017-07-18T06:46:17.228Z,22.89
2017-07-18T06:48:43.607Z,22.89
2017-07-18T06:51:10.734Z,22.89
2017-07-18T06:53:37.098Z,22.93
2017-07-18T06:56:03.464Z,22.93
2017-07-18T06:58:30.600Z,22.93
2017-07-18T07:00:57.031Z,22.94
2017-07-18T07:03:23.383Z,22.92
2017-07-18T07:05:49.766Z,22.95
2017-07-18T07:08:16.309Z,22.96
2017-07-18T07:10:42.679Z,23.00
2017-07-18T07:13:09.048Z,22.99
2017-07-18T07:15:35.411Z,23.00
2017-07-18T07:18:01.816Z,23.00
2017-07-18T07:20:28.192Z,23.02
2017-07-18T07:22:55.323Z,23.02
2017-07-18T07:25:21.682Z,23.02
2017-07-18T07:27:48.074Z,23.03
2017-07-18T07:30:14.470Z,23.02
2017-07-18T07:32:40.851Z,23.03
2017-07-18T07:35:07.359Z,23.03
2017-07-18T07:37:33.727Z,23.04
2017-07-18T07:40:00.095Z,23.04
2017-07-18T07:42:26.462Z,23.02
2017-07-18T07:44:52.820Z,23.03
2017-07-18T07:47:19.319Z,23.04
2017-07-18T07:49:45.683Z,23.04
2017-07-18T07:52:12.099Z,23.04
2017-07-18T07:54:38.479Z,23.04
2017-07-18T07:57:04.853Z,23.05
2017-07-18T07:59:32.006Z,23.04
2017-07-18T08:01:58.380Z,23.04
2017-07-18T08:04:25.503Z,23.05
2017-07-18T08:06:51.869Z,23.06
2017-07-18T08:09:18.250Z,23.06
2017-07-18T08:11:45.405Z,23.07
2017-07-18T08:14:12.575Z,23.06
2017-07-18T08:16:39.727Z,23.07
2017-07-18T08:19:06.062Z,23.05
2017-07-18T08:21:32.441Z,23.07
2017-07-18T08:23:59.569Z,23.08
2017-07-18T08:26:25.931Z,23.15
2017-07-18T08:28:54.152Z,23.22
2017-07-18T08:31:21.586Z,23.29
2017-07-18T08:33:48.135Z,23.34
2017-07-18T08:36:14.566Z,23.38
2017-07-18T08:38:40.943Z,23.37
2017-07-18T08:41:07.394Z,23.41
2017-07-18T08:43:33.762Z,23.44
2017-07-18T08:46:00.128Z,23.46
2017-07-18T08:48:26.698Z,23.47
2017-07-18T08:50:53.099Z,23.52
2017-07-18T08:53:19.483Z,23.53
2017-07-18T08:55:46.621Z,23.56
2017-07-18T08:58:13.000Z,23.59
2017-07-18T09:00:40.149Z,23.59
2017-07-18T09:03:06.517Z,23.60
2017-07-18T09:05:34.767Z,23.61
2017-07-18T09:08:01.153Z,23.62
2017-07-18T09:10:27.533Z,23.66
2017-07-18T09:12:55.047Z,23.64
2017-07-18T09:15:21.419Z,23.75
2017-07-18T09:17:47.790Z,23.69
2017-07-18T09:20:15.325Z,23.70
2017-07-18T09:22:41.877Z,23.71
2017-07-18T09:25:08.261Z,23.72
2017-07-18T09:27:34.775Z,23.75
2017-07-18T09:30:01.167Z,23.76
2017-07-18T09:32:27.530Z,23.78
2017-07-18T09:34:53.899Z,23.79
2017-07-18T09:37:20.389Z,23.81
2017-07-18T09:39:46.777Z,23.80
2017-07-18T09:42:13.144Z,23.81
2017-07-18T09:44:39.507Z,23.83
2017-07-18T09:47:05.967Z,23.84
2017-07-18T09:49:32.354Z,23.86
2017-07-18T09:51:58.738Z,23.87
2017-07-18T09:54:25.101Z,23.89
2017-07-18T09:56:51.578Z,23.88
2017-07-18T09:59:17.998Z,23.90
2017-07-18T10:01:44.366Z,23.90
2017-07-18T10:04:10.771Z,23.88
2017-07-18T10:06:38.005Z,23.88
2017-07-18T10:09:04.442Z,23.87
2017-07-18T10:11:30.903Z,23.87
2017-07-18T10:13:57.464Z,23.90
2017-07-18T10:16:24.022Z,23.91
2017-07-18T10:18:50.749Z,23.93
2017-07-18T10:21:17.328Z,23.93
2017-07-18T10:23:43.880Z,23.95
2017-07-18T10:26:10.264Z,23.95
2017-07-18T10:28:37.383Z,23.96
2017-07-18T10:31:03.892Z,23.98
2017-07-18T10:33:30.286Z,23.99
2017-07-18T10:35:56.667Z,23.99
2017-07-18T10:38:23.059Z,23.98
2017-07-18T10:40:49.428Z,24.00
2017-07-18T10:43:15.923Z,24.01
2017-07-18T10:47:50.754Z,24.54
2017-07-18T10:50:17.150Z,24.37
2017-07-18T10:52:43.534Z,24.30
2017-07-18T10:55:09.898Z,24.26
2017-07-18T10:57:36.271Z,24.25
2017-07-18T11:00:02.662Z,24.23
2017-07-18T11:02:29.035Z,24.22
2017-07-18T11:04:55.441Z,24.20
2017-07-18T11:07:21.813Z,24.23
2017-07-18T11:09:48.194Z,24.24
2017-07-18T11:12:14.566Z,24.23
2017-07-18T11:14:40.969Z,24.24
2017-07-18T11:17:08.099Z,24.26
2017-07-18T11:19:34.470Z,24.25
2017-07-18T11:22:00.839Z,24.25
2017-07-18T11:24:27.972Z,24.23
2017-07-18T11:26:54.375Z,24.20
2017-07-18T11:29:20.770Z,24.18
2017-07-18T11:31:47.333Z,24.16
2017-07-18T11:34:13.902Z,24.16
2017-07-18T11:36:40.474Z,24.15
2017-07-18T11:39:06.868Z,24.17
2017-07-18T11:41:33.222Z,24.12
2017-07-18T11:43:59.625Z,24.05
2017-07-18T11:46:26.753Z,24.02
2017-07-18T11:48:53.141Z,24.02
2017-07-18T11:51:20.262Z,23.99
2017-07-18T11:53:46.655Z,23.98
2017-07-18T11:56:13.797Z,23.95
2017-07-18T11:58:40.171Z,23.93
2017-07-18T12:01:07.313Z,23.92
2017-07-18T12:03:33.693Z,23.91
2017-07-18T12:06:00.832Z,23.90
2017-07-18T12:08:27.241Z,23.89
2017-07-18T12:10:53.622Z,23.87
2017-07-18T12:13:20.014Z,23.87
2017-07-18T12:15:46.394Z,23.86
2017-07-18T12:18:12.891Z,23.87
2017-07-18T12:20:39.263Z,23.89
2017-07-18T12:23:05.660Z,23.89
2017-07-18T12:25:32.052Z,23.89
2017-07-18T12:27:59.342Z,23.88
2017-07-18T12:30:25.726Z,23.87
2017-07-18T12:32:52.108Z,23.88
2017-07-18T12:35:18.544Z,23.85
2017-07-18T12:37:44.960Z,23.84
2017-07-18T12:40:11.318Z,23.84
2017-07-18T12:42:37.699Z,23.83
2017-07-18T12:45:04.955Z,23.84
2017-07-18T12:47:31.322Z,23.83
2017-07-18T12:49:57.723Z,23.83
2017-07-18T12:52:24.098Z,23.82
2017-07-18T12:54:50.714Z,23.83
2017-07-18T12:57:17.101Z,23.81
2017-07-18T12:59:43.462Z,23.80
2017-07-18T13:02:09.836Z,23.80
2017-07-18T13:04:36.246Z,23.79
2017-07-18T13:07:02.603Z,23.80
2017-07-18T13:09:29.003Z,23.80
2017-07-18T13:11:56.139Z,23.79
2017-07-18T13:14:22.574Z,23.80
2017-07-18T13:16:48.955Z,23.79
2017-07-18T13:19:15.326Z,23.80
2017-07-18T13:21:41.718Z,23.83
2017-07-18T13:24:08.070Z,23.90
2017-07-18T13:26:34.451Z,24.21
2017-07-18T13:29:00.817Z,24.25
2017-07-18T13:31:27.960Z,24.35
2017-07-18T13:33:54.403Z,24.44
2017-07-18T13:36:20.791Z,24.47
2017-07-18T13:38:47.194Z,24.56
2017-07-18T13:41:13.588Z,24.59
2017-07-18T13:43:40.721Z,24.63
2017-07-18T13:46:07.084Z,24.66
2017-07-18T13:48:33.480Z,24.77
2017-07-18T13:50:59.867Z,24.75
2017-07-18T13:53:26.241Z,24.69
2017-07-18T13:55:52.040Z,24.78
2017-07-18T13:58:17.835Z,24.78
2017-07-18T14:00:44.388Z,24.85
2017-07-18T14:03:10.927Z,24.90
2017-07-18T14:05:37.475Z,24.93
2017-07-18T14:08:03.491Z,24.93
2017-07-18T14:10:29.298Z,24.93
2017-07-18T14:12:55.091Z,24.96
2017-07-18T14:15:20.896Z,24.93
2017-07-18T14:17:46.703Z,24.97
2017-07-18T14:20:12.499Z,24.98
2017-07-18T14:22:38.295Z,24.98
2017-07-18T14:25:04.091Z,25.01
2017-07-18T14:27:29.881Z,25.02
2017-07-18T14:29:55.692Z,25.04
2017-07-18T14:32:21.478Z,24.93
2017-07-18T14:34:47.392Z,24.77
2017-07-18T14:37:13.322Z,24.67
2017-07-18T14:39:39.258Z,24.61
2017-07-18T14:42:05.211Z,24.57
2017-07-18T14:44:30.991Z,24.56
2017-07-18T14:46:56.782Z,24.53
2017-07-18T14:49:22.590Z,24.51
2017-07-18T14:51:48.334Z,24.52
2017-07-18T14:54:14.153Z,24.50
2017-07-18T14:56:39.994Z,24.49
2017-07-18T14:59:05.806Z,24.49
2017-07-18T15:01:31.696Z,24.45
2017-07-18T15:03:57.515Z,24.44
2017-07-18T15:06:23.308Z,24.41
2017-07-18T15:08:49.116Z,24.41
2017-07-18T15:11:14.947Z,24.42
2017-07-18T15:13:40.751Z,24.41
2017-07-18T15:16:06.583Z,24.41
2017-07-18T15:18:32.363Z,24.40
2017-07-18T15:20:58.177Z,24.38
2017-07-18T15:23:23.966Z,24.39
2017-07-18T15:25:49.781Z,24.41
2017-07-18T15:28:15.623Z,24.39
2017-07-18T15:30:41.541Z,24.38
2017-07-18T15:33:07.358Z,24.37
2017-07-18T15:35:33.155Z,24.37
2017-07-18T15:37:58.964Z,24.37
2017-07-18T15:40:24.747Z,24.37
2017-07-18T15:42:50.501Z,24.38
2017-07-18T15:45:16.318Z,24.36
2017-07-18T15:47:42.847Z,24.37
2017-07-18T15:50:08.657Z,24.37
2017-07-18T15:52:34.467Z,24.36
2017-07-18T15:55:00.290Z,24.36
2017-07-18T15:57:26.824Z,24.36
2017-07-18T15:59:52.623Z,24.36
2017-07-18T16:02:18.439Z,24.36
2017-07-18T16:04:44.237Z,24.39
2017-07-18T16:07:10.027Z,24.38
2017-07-18T16:09:35.843Z,24.37
2017-07-18T16:12:01.626Z,24.38
2017-07-18T16:14:27.411Z,24.37
2017-07-18T16:16:53.221Z,24.37
2017-07-18T16:19:19.010Z,24.35
2017-07-18T16:21:44.834Z,24.35
2017-07-18T16:24:10.638Z,24.36
2017-07-18T16:26:36.450Z,24.37
2017-07-18T16:29:02.254Z,24.36
2017-07-18T16:31:28.058Z,24.37
2017-07-18T16:33:53.851Z,24.36
2017-07-18T16:36:19.645Z,24.35
2017-07-18T16:38:45.463Z,24.33
2017-07-18T16:41:11.279Z,24.29
2017-07-18T16:43:37.091Z,24.29
2017-07-18T16:46:02.921Z,24.27
2017-07-18T16:48:28.721Z,24.25
2017-07-18T16:50:54.519Z,24.25
2017-07-18T16:53:20.326Z,24.23
2017-07-18T16:55:46.144Z,24.21
2017-07-18T16:58:11.935Z,24.20
2017-07-18T17:00:37.755Z,24.19
2017-07-18T17:03:03.567Z,24.17
2017-07-18T17:05:29.356Z,24.17
2017-07-18T17:07:55.243Z,24.14
2017-07-18T17:10:21.044Z,24.13
2017-07-18T17:12:46.850Z,24.12
2017-07-18T17:15:13.399Z,24.11
2017-07-18T17:17:39.179Z,24.10
2017-07-18T17:20:04.951Z,24.08
2017-07-18T17:22:30.735Z,24.08
2017-07-18T17:24:56.554Z,24.07
2017-07-18T17:27:22.352Z,24.08
2017-07-18T17:29:48.161Z,24.06
2017-07-18T17:32:13.986Z,24.06
2017-07-18T17:34:40.535Z,24.06
2017-07-18T17:37:07.085Z,24.04
2017-07-18T17:39:33.688Z,24.27
2017-07-18T17:41:59.472Z,24.37
2017-07-18T17:44:25.262Z,24.47
2017-07-18T17:46:51.051Z,24.58
2017-07-18T17:49:17.603Z,24.67
2017-07-18T17:51:44.166Z,24.74
2017-07-18T17:54:10.707Z,24.78
2017-07-18T17:56:37.234Z,24.79
2017-07-18T17:59:03.040Z,24.79
2017-07-18T18:01:28.840Z,24.82
2017-07-18T18:03:54.675Z,24.82
2017-07-18T18:06:21.232Z,24.85
2017-07-18T18:08:47.837Z,24.90
2017-07-18T18:11:13.658Z,24.94
2017-07-18T18:13:39.477Z,24.90
2017-07-18T18:16:05.288Z,24.98
2017-07-18T18:18:31.100Z,25.05
2017-07-18T18:20:56.902Z,25.04
2017-07-18T18:23:22.723Z,24.97
2017-07-18T18:25:48.515Z,24.95
2017-07-18T18:28:14.346Z,24.94
2017-07-18T18:30:40.148Z,24.96
2017-07-18T18:33:05.940Z,24.95
2017-07-18T18:35:31.962Z,24.97
2017-07-18T18:37:57.769Z,24.95
2017-07-18T18:40:23.564Z,24.98
2017-07-18T18:42:50.132Z,24.99
2017-07-18T18:45:16.685Z,24.99
2017-07-18T18:47:42.660Z,25.01
2017-07-18T18:50:08.475Z,25.03
2017-07-18T18:52:34.279Z,25.03
2017-07-18T18:55:00.087Z,25.03
2017-07-18T18:57:26.016Z,25.06
2017-07-18T18:59:51.823Z,25.05
2017-07-18T19:02:17.622Z,25.04
2017-07-18T19:04:43.418Z,25.04
2017-07-18T19:07:09.214Z,25.04
2017-07-18T19:09:35.007Z,25.01
2017-07-18T19:12:06.127Z,25.00
2017-07-18T19:14:31.955Z,25.03
2017-07-18T19:16:57.777Z,25.02
2017-07-18T19:19:24.327Z,25.03
2017-07-18T19:21:50.873Z,25.05
2017-07-18T19:24:16.658Z,25.06
2017-07-18T19:26:42.482Z,25.05
2017-07-18T19:29:08.355Z,25.05
2017-07-18T19:31:34.156Z,25.07
2017-07-18T19:33:59.943Z,25.10
2017-07-18T19:36:25.730Z,25.11
2017-07-18T19:38:51.693Z,25.11
2017-07-18T19:41:17.480Z,25.11
2017-07-18T19:43:44.043Z,25.12
2017-07-18T19:46:09.848Z,25.11
2017-07-18T19:48:35.684Z,25.10
2017-07-18T19:51:01.482Z,25.14
2017-07-18T19:53:27.272Z,25.07
2017-07-18T19:55:53.068Z,25.10
2017-07-18T19:58:18.882Z,25.09
2017-07-18T20:00:44.687Z,25.10
2017-07-18T20:03:10.564Z,25.01
2017-07-18T20:05:36.367Z,24.85
2017-07-18T20:08:03.008Z,24.74
2017-07-18T20:10:28.810Z,24.65
2017-07-18T20:12:54.615Z,24.59
2017-07-18T20:15:20.415Z,24.57
2017-07-18T20:17:46.233Z,24.52
2017-07-18T20:20:12.084Z,24.48
2017-07-18T20:22:37.879Z,24.45
2017-07-18T20:25:03.679Z,24.42
2017-07-18T20:27:29.475Z,24.39
2017-07-18T20:29:55.262Z,24.34
2017-07-18T20:32:21.092Z,24.33
2017-07-18T20:34:47.637Z,24.31
2017-07-18T20:37:14.320Z,24.30
2017-07-18T20:39:40.139Z,24.28
2017-07-18T20:42:06.708Z,24.26
2017-07-18T20:44:32.536Z,24.24
2017-07-18T20:46:58.324Z,24.22
2017-07-18T20:49:24.144Z,24.21
2017-07-18T20:51:49.939Z,24.22
2017-07-18T20:54:15.746Z,24.20
2017-07-18T20:56:41.555Z,24.21
2017-07-18T20:59:07.348Z,24.21
2017-07-18T21:01:33.162Z,24.20
2017-07-18T21:03:58.951Z,24.18
2017-07-18T21:06:24.739Z,24.18
2017-07-18T21:08:50.528Z,24.16
2017-07-18T21:11:16.360Z,24.15
2017-07-18T21:13:42.299Z,24.15
2017-07-18T21:16:08.321Z,24.15
2017-07-18T21:18:34.482Z,24.13
2017-07-18T21:21:00.270Z,24.12
2017-07-18T21:23:26.082Z,24.11
2017-07-18T21:25:52.022Z,24.11
2017-07-18T21:28:17.965Z,24.11
2017-07-18T21:30:43.823Z,24.09
2017-07-18T21:33:09.644Z,24.08
2017-07-18T21:35:35.469Z,24.09
2017-07-18T21:38:01.270Z,24.10
2017-07-18T21:40:27.863Z,24.10
2017-07-18T21:42:53.664Z,24.10
2017-07-18T21:45:19.481Z,24.10
2017-07-18T21:47:45.290Z,24.10
2017-07-18T21:50:11.107Z,24.10
2017-07-18T21:52:36.915Z,24.31
2017-07-18T21:57:26.499Z,24.37
2017-07-18T21:59:52.878Z,24.36
2017-07-18T22:02:20.020Z,24.35
2017-07-18T22:04:46.387Z,24.31
2017-07-18T22:07:12.754Z,24.27
2017-07-18T22:09:39.143Z,24.21
2017-07-18T22:12:05.520Z,24.20
2017-07-18T22:14:31.884Z,24.17
2017-07-18T22:16:58.291Z,24.15
2017-07-18T22:19:25.102Z,24.14
2017-07-18T22:21:51.472Z,24.14
2017-07-18T22:24:17.826Z,24.13
2017-07-18T22:26:44.207Z,24.14
2017-07-18T22:29:10.576Z,24.14
2017-07-18T22:31:36.982Z,24.13
2017-07-18T22:34:03.452Z,24.09
2017-07-18T22:36:29.976Z,24.07
2017-07-18T22:38:56.367Z,24.06
2017-07-18T22:41:22.738Z,24.03
2017-07-18T22:43:49.116Z,24.05
2017-07-18T22:46:15.475Z,24.03
2017-07-18T22:48:41.877Z,24.03
2017-07-18T22:51:08.243Z,24.01
2017-07-18T22:53:34.636Z,24.00
2017-07-18T22:56:01.089Z,24.03
2017-07-18T22:58:27.466Z,24.02
2017-07-18T23:00:53.862Z,24.02
2017-07-18T23:03:20.999Z,23.98
2017-07-18T23:05:47.359Z,23.95
2017-07-18T23:08:13.739Z,23.94
2017-07-18T23:10:40.111Z,23.95
2017-07-18T23:13:06.485Z,23.95
2017-07-18T23:15:32.847Z,23.92
2017-07-18T23:17:59.218Z,23.92
2017-07-18T23:20:25.582Z,23.92
2017-07-18T23:22:51.944Z,23.91
2017-07-18T23:25:18.325Z,23.91
2017-07-18T23:27:44.692Z,23.90
2017-07-18T23:30:11.279Z,23.95
2017-07-18T23:32:38.396Z,23.93
2017-07-18T23:37:37.369Z,23.91
2017-07-18T23:40:03.740Z,23.96
2017-07-18T23:42:30.243Z,23.96
2017-07-18T23:44:56.799Z,23.95
2017-07-18T23:47:23.188Z,23.94
2017-07-18T23:49:49.559Z,23.92
2017-07-18T23:52:15.951Z,23.93
2017-07-18T23:54:42.333Z,23.92
2017-07-18T23:57:08.692Z,23.92
2017-07-18T23:59:35.811Z,23.91
